Sonja — V2CR8 — position and weather

sailwx.info

Track history (hours):
 
Tides and Currents Weather Stations Pressure Air Temp Water Temp Dewpoint Dewpoint Depression Visibility Wind Speed Wind Dir Waves Ship Positions

Sonja

Last reported at 2017-Dec-07 22:38 UTC. Time now 2017-Dec-17 04:30 UTC.
Position S 25°42' E 153°38'.
Warning: this ship's position is 9 days out of date.

Length 101 m; draft 5.5 m.

Type: Cargo ship. MMSI: 305089000.

Date/timePositionNaut miles runAvg speedWind from/ knotsBaromVisibWave heightAir tempDewpointWater temp
2017-Dec-07 22:38S 25°42' E 153°38'111.0
2017-Dec-07 22:30S 25°44' E 153°37'510.8
2017-Dec-07 22:00S 25°49' E 153°38'510.6
2017-Dec-07 21:31S 25°55' E 153°38'510.5
2017-Dec-07 21:01S 25°60' E 153°38'510.3
2017-Dec-07 20:31S 26°05' E 153°38'510.4
2017-Dec-07 20:01S 26°10' E 153°38'510.3
2017-Dec-07 19:31S 26°15' E 153°39'510.2
2017-Dec-07 19:00S 26°20' E 153°39'510.0
2017-Dec-07 18:31S 26°25' E 153°39'510.0
2017-Dec-07 17:58S 26°31' E 153°39'4 9.9
2017-Dec-07 17:30S 26°35' E 153°39'5 9.8
2017-Dec-07 17:01S 26°40' E 153°39'5 9.6
2017-Dec-07 16:31S 26°45' E 153°40'7 9.3
2017-Dec-07 15:47S 26°52' E 153°40'4 9.2
2017-Dec-07 15:19S 26°56' E 153°40'3 9.2
2017-Dec-07 15:00S 26°59' E 153°40'4 9.1
2017-Dec-07 14:30S 27°03' E 153°40'5 9.1
2017-Dec-07 13:59S 27°08' E 153°40'5 9.0
2017-Dec-07 13:29S 27°13' E 153°41'4 8.7
2017-Dec-07 13:01S 27°17' E 153°41'4 8.5
2017-Dec-07 12:31S 27°21' E 153°41'4 8.3
2017-Dec-07 12:00S 27°25' E 153°41'4 8.2
2017-Dec-07 11:30S 27°29' E 153°41'4 8.1
2017-Dec-07 11:01S 27°33' E 153°41'4 8.2
2017-Dec-07 10:31S 27°37' E 153°42'4 8.3
2017-Dec-07 10:00S 27°42' E 153°42'4 8.2
2017-Dec-07 09:30S 27°46' E 153°42'4 8.9
2017-Dec-07 09:00S 27°50' E 153°42'510.3
2017-Dec-07 08:30S 27°55' E 153°42'510.9
2017-Dec-07 08:00S 28°01' E 153°43'611.1
2017-Dec-07 07:31S 28°06' E 153°43'510.8
2017-Dec-07 07:00S 28°12' E 153°43'510.8
2017-Dec-07 06:30S 28°17' E 153°44'510.8
2017-Dec-07 06:00S 28°22' E 153°45'610.6
2017-Dec-07 05:27S 28°28' E 153°45'510.6
2017-Dec-07 05:00S 28°33' E 153°45'510.4
2017-Dec-07 04:30S 28°38' E 153°46'510.1
2017-Dec-07 04:00S 28°43' E 153°45'610.1
2017-Dec-07 03:24S 28°49' E 153°44'410.1
2017-Dec-07 02:58S 28°53' E 153°43'  
2017-Dec-03 10:55S 32°55' E 151°46'1 2.0
2017-Dec-03 10:31S 32°55' E 151°47'3 6.7
2017-Dec-03 10:00S 32°56' E 151°51'4 7.0
2017-Dec-03 09:30S 32°58' E 151°54'5 9.7
2017-Dec-03 09:01S 32°57' E 151°60'5 9.6
2017-Dec-03 08:31S 32°55' E 152°05'5 9.6
2017-Dec-03 08:01S 32°53' E 152°10'5 9.8
2017-Dec-03 07:30S 32°50' E 152°15'510.2
2017-Dec-03 07:01S 32°46' E 152°19'510.3
2017-Dec-03 06:31S 32°43' E 152°23'611.5
2017-Dec-03 06:01S 32°38' E 152°28'611.0
2017-Dec-03 05:29S 32°34' E 152°33'611.3
2017-Dec-03 04:56S 32°30' E 152°38'513.1
2017-Dec-03 04:31S 32°25' E 152°40'22313.6
2017-Dec-02 12:06S 28°49' E 153°44'314.5
2017-Dec-02 11:53S 28°45' E 153°45'514.2
2017-Dec-02 11:30S 28°40' E 153°46'714.0
2017-Dec-02 11:01S 28°33' E 153°45'713.8
2017-Dec-02 10:31S 28°26' E 153°45'713.7
2017-Dec-02 10:01S 28°20' E 153°44'713.5
2017-Dec-02 09:31S 28°13' E 153°44'713.3
2017-Dec-02 09:00S 28°06' E 153°43'713.2
2017-Dec-02 08:30S 27°60' E 153°42'713.7
2017-Dec-02 08:01S 27°53' E 153°42'713.9
2017-Dec-02 07:31S 27°46' E 153°41'713.7
2017-Dec-02 07:00S 27°39' E 153°41'1213.5
2017-Dec-02 06:09S 27°27' E 153°40'213.1
2017-Dec-02 06:00S 27°26' E 153°39'2113.2
2017-Dec-02 04:24S 27°05' E 153°38'  
Track history (hours):
 
Tides and Currents Weather Stations Pressure Air Temp Water Temp Dewpoint Dewpoint Depression Visibility Wind Speed Wind Dir Waves Ship Positions

Sonja

Last reported at 2017-Dec-07 22:38 UTC. Time now 2017-Dec-17 04:30 UTC.
Position S 25°42' E 153°38'.
Warning: this ship's position is 9 days out of date.

Length 101 m; draft 5.5 m.

Type: Cargo ship. MMSI: 305089000.

Date/timePositionNaut miles runAvg speedWind from/ knotsBaromVisibWave heightAir tempDewpointWater temp
2017-Dec-07 22:38S 25°42' E 153°38'111.0
2017-Dec-07 22:30S 25°44' E 153°37'510.8
2017-Dec-07 22:00S 25°49' E 153°38'510.6
2017-Dec-07 21:31S 25°55' E 153°38'510.5
2017-Dec-07 21:01S 25°60' E 153°38'510.3
2017-Dec-07 20:31S 26°05' E 153°38'510.4
2017-Dec-07 20:01S 26°10' E 153°38'510.3
2017-Dec-07 19:31S 26°15' E 153°39'510.2
2017-Dec-07 19:00S 26°20' E 153°39'510.0
2017-Dec-07 18:31S 26°25' E 153°39'510.0
2017-Dec-07 17:58S 26°31' E 153°39'4 9.9
2017-Dec-07 17:30S 26°35' E 153°39'5 9.8
2017-Dec-07 17:01S 26°40' E 153°39'5 9.6
2017-Dec-07 16:31S 26°45' E 153°40'7 9.3
2017-Dec-07 15:47S 26°52' E 153°40'4 9.2
2017-Dec-07 15:19S 26°56' E 153°40'3 9.2
2017-Dec-07 15:00S 26°59' E 153°40'4 9.1
2017-Dec-07 14:30S 27°03' E 153°40'5 9.1
2017-Dec-07 13:59S 27°08' E 153°40'5 9.0
2017-Dec-07 13:29S 27°13' E 153°41'4 8.7
2017-Dec-07 13:01S 27°17' E 153°41'4 8.5
2017-Dec-07 12:31S 27°21' E 153°41'4 8.3
2017-Dec-07 12:00S 27°25' E 153°41'4 8.2
2017-Dec-07 11:30S 27°29' E 153°41'4 8.1
2017-Dec-07 11:01S 27°33' E 153°41'4 8.2
2017-Dec-07 10:31S 27°37' E 153°42'4 8.3
2017-Dec-07 10:00S 27°42' E 153°42'4 8.2
2017-Dec-07 09:30S 27°46' E 153°42'4 8.9
2017-Dec-07 09:00S 27°50' E 153°42'510.3
2017-Dec-07 08:30S 27°55' E 153°42'510.9
2017-Dec-07 08:00S 28°01' E 153°43'611.1
2017-Dec-07 07:31S 28°06' E 153°43'510.8
2017-Dec-07 07:00S 28°12' E 153°43'510.8
2017-Dec-07 06:30S 28°17' E 153°44'510.8
2017-Dec-07 06:00S 28°22' E 153°45'610.6
2017-Dec-07 05:27S 28°28' E 153°45'510.6
2017-Dec-07 05:00S 28°33' E 153°45'510.4
2017-Dec-07 04:30S 28°38' E 153°46'510.1
2017-Dec-07 04:00S 28°43' E 153°45'610.1
2017-Dec-07 03:24S 28°49' E 153°44'410.1
2017-Dec-07 02:58S 28°53' E 153°43'  
2017-Dec-03 10:55S 32°55' E 151°46'1 2.0
2017-Dec-03 10:31S 32°55' E 151°47'3 6.7
2017-Dec-03 10:00S 32°56' E 151°51'4 7.0
2017-Dec-03 09:30S 32°58' E 151°54'5 9.7
2017-Dec-03 09:01S 32°57' E 151°60'5 9.6
2017-Dec-03 08:31S 32°55' E 152°05'5 9.6
2017-Dec-03 08:01S 32°53' E 152°10'5 9.8
2017-Dec-03 07:30S 32°50' E 152°15'510.2
2017-Dec-03 07:01S 32°46' E 152°19'510.3
2017-Dec-03 06:31S 32°43' E 152°23'611.5
2017-Dec-03 06:01S 32°38' E 152°28'611.0
2017-Dec-03 05:29S 32°34' E 152°33'611.3
2017-Dec-03 04:56S 32°30' E 152°38'513.1
2017-Dec-03 04:31S 32°25' E 152°40'22313.6
2017-Dec-02 12:06S 28°49' E 153°44'314.5
2017-Dec-02 11:53S 28°45' E 153°45'514.2
2017-Dec-02 11:30S 28°40' E 153°46'714.0
2017-Dec-02 11:01S 28°33' E 153°45'713.8
2017-Dec-02 10:31S 28°26' E 153°45'713.7
2017-Dec-02 10:01S 28°20' E 153°44'713.5
2017-Dec-02 09:31S 28°13' E 153°44'713.3
2017-Dec-02 09:00S 28°06' E 153°43'713.2
2017-Dec-02 08:30S 27°60' E 153°42'713.7
2017-Dec-02 08:01S 27°53' E 153°42'713.9
2017-Dec-02 07:31S 27°46' E 153°41'713.7
2017-Dec-02 07:00S 27°39' E 153°41'1213.5
2017-Dec-02 06:09S 27°27' E 153°40'213.1
2017-Dec-02 06:00S 27°26' E 153°39'2113.2
2017-Dec-02 04:24S 27°05' E 153°38'  

Dump ship's entire track history